Time;durP1;ratioP1;P1;durP2;ratioP2;P2;SDS_P1;SDS_P2;PMS_P1;PMS_P2;Temp;Humidity;BMP_temperature;BMP_pressure;BME280_temperature;BME280_humidity;BME280_pressure;Samples;Min_cycle;Max_cycle;Signal;HPM_P1;HPM_P2
2022/09/30 00:00:55;;;;;;;4.87;4.47;;;9.60;99.90;;;;;;5103304;28;20213;-41
2022/09/30 00:03:23;;;;;;;4.50;4.20;;;9.60;99.90;;;;;;5098304;28;20917;-40
2022/09/30 00:05:56;;;;;;;5.10;4.70;;;9.60;99.90;;;;;;5103131;28;20558;-41
2022/09/30 00:08:23;;;;;;;5.00;4.47;;;9.60;99.90;;;;;;5101247;28;20191;-45
2022/09/30 00:10:59;;;;;;;5.70;4.90;;;9.60;99.90;;;;;;5107764;27;20680;-41
2022/09/30 00:13:25;;;;;;;5.60;5.10;;;9.50;99.90;;;;;;5105464;27;20781;-41
2022/09/30 00:15:53;;;;;;;4.83;4.43;;;9.50;99.90;;;;;;5106878;28;20217;-41
2022/09/30 00:18:20;;;;;;;5.20;4.70;;;9.50;99.90;;;;;;5102529;28;20980;-41
2022/09/30 00:20:46;;;;;;;5.10;4.23;;;9.50;99.90;;;;;;5115010;27;20197;-41
2022/09/30 00:23:13;;;;;;;5.13;4.80;;;9.50;99.90;;;;;;5121527;27;20204;-42
2022/09/30 00:25:39;;;;;;;5.87;5.37;;;9.50;99.90;;;;;;5106224;27;20220;-42
2022/09/30 00:28:06;;;;;;;5.50;5.10;;;9.50;99.90;;;;;;5096972;28;20217;-42
2022/09/30 00:30:33;;;;;;;5.30;4.90;;;9.40;99.90;;;;;;5104196;27;20277;-41
2022/09/30 00:33:02;;;;;;;5.53;5.13;;;9.40;99.90;;;;;;5104242;28;20279;-46
2022/09/30 00:35:28;;;;;;;7.03;5.57;;;9.40;99.90;;;;;;5101810;28;20192;-40
2022/09/30 00:37:55;;;;;;;6.03;5.30;;;9.50;99.90;;;;;;5104816;28;20210;-41
2022/09/30 00:40:22;;;;;;;6.10;5.60;;;9.50;99.90;;;;;;5090628;27;20232;-42
2022/09/30 00:42:49;;;;;;;5.97;5.47;;;9.50;99.90;;;;;;5126156;27;20192;-41
2022/09/30 00:45:16;;;;;;;6.87;6.27;;;9.50;99.90;;;;;;5122659;27;20200;-42
2022/09/30 00:47:51;;;;;;;6.57;5.87;;;9.50;99.90;;;;;;5126433;27;20299;-40
2022/09/30 00:50:45;;;;;;;6.07;5.53;;;9.50;99.90;;;;;;5117298;27;20202;-45
2022/09/30 00:53:16;;;;;;;6.43;5.93;;;9.50;99.90;;;;;;5106641;27;20303;-40
2022/09/30 00:55:49;;;;;;;6.83;6.13;;;9.50;99.90;;;;;;5108897;27;20678;-42
2022/09/30 00:58:22;;;;;;;6.43;5.93;;;9.50;99.90;;;;;;5102093;28;20217;-42
2022/09/30 01:00:50;;;;;;;6.57;5.90;;;9.50;99.90;;;;;;5106215;28;20196;-42
2022/09/30 01:03:18;;;;;;;6.80;6.10;;;9.50;99.90;;;;;;5101567;28;20220;-46
2022/09/30 01:05:46;;;;;;;6.60;6.00;;;9.50;99.90;;;;;;5105996;28;20197;-42
2022/09/30 01:08:13;;;;;;;6.47;5.87;;;9.50;99.90;;;;;;5103190;28;20213;-43
2022/09/30 01:10:39;;;;;;;6.63;6.03;;;9.50;99.90;;;;;;5104836;28;20185;-41
2022/09/30 01:13:06;;;;;;;7.17;6.47;;;9.40;99.90;;;;;;5091791;27;20674;-42
2022/09/30 01:16:05;;;;;;;6.87;6.37;;;9.50;99.90;;;;;;5101448;28;20291;-43
2022/09/30 01:18:42;;;;;;;7.50;6.73;;;9.40;99.90;;;;;;5094052;28;20234;-42
2022/09/30 01:21:39;;;;;;;7.97;7.27;;;9.40;99.90;;;;;;5110104;27;20238;-44
2022/09/30 01:24:39;;;;;;;7.87;7.07;;;9.40;99.90;;;;;;5123066;27;20193;-42
2022/09/30 01:27:28;;;;;;;7.83;7.13;;;9.40;99.90;;;;;;5118642;27;20209;-41
2022/09/30 01:30:08;;;;;;;6.87;6.27;;;9.30;99.90;;;;;;5100745;28;20189;-39
2022/09/30 01:33:09;;;;;;;9.00;6.40;;;9.30;99.90;;;;;;5103842;28;20198;-39
2022/09/30 01:35:50;;;;;;;6.87;6.27;;;9.30;99.90;;;;;;5103050;28;20189;-40
2022/09/30 01:38:28;;;;;;;7.40;6.20;;;9.20;99.90;;;;;;5101699;28;20213;-40
2022/09/30 01:41:04;;;;;;;7.10;6.40;;;9.10;99.90;;;;;;5105372;28;20191;-42
2022/09/30 01:43:41;;;;;;;7.97;6.33;;;9.00;99.90;;;;;;5082911;27;20229;-42
2022/09/30 01:46:19;;;;;;;6.67;5.87;;;9.00;99.90;;;;;;5103165;28;20190;-43
2022/09/30 01:48:56;;;;;;;7.67;6.80;;;9.00;99.90;;;;;;5105271;28;20684;-44
2022/09/30 01:51:30;;;;;;;6.93;6.33;;;8.90;99.90;;;;;;5112097;27;20195;-41
2022/09/30 01:54:03;;;;;;;7.10;6.50;;;8.90;99.90;;;;;;5124578;27;20233;-41
2022/09/30 01:56:36;;;;;;;8.00;7.20;;;8.90;99.90;;;;;;5122184;27;20216;-40
2022/09/30 01:59:08;;;;;;;7.13;6.53;;;8.90;99.90;;;;;;5103941;27;20209;-44
2022/09/30 02:01:39;;;;;;;7.60;6.90;;;8.90;99.90;;;;;;5102859;28;20264;-41
2022/09/30 02:04:12;;;;;;;7.80;7.10;;;8.90;99.90;;;;;;5102767;28;20189;-41
2022/09/30 02:06:44;;;;;;;7.60;6.90;;;8.90;99.90;;;;;;5103260;28;20515;-40
2022/09/30 02:09:16;;;;;;;12.40;7.33;;;8.90;99.90;;;;;;5102687;28;20189;-43
2022/09/30 02:11:43;;;;;;;8.03;7.23;;;8.80;99.90;;;;;;5104639;28;20548;-42
2022/09/30 02:14:15;;;;;;;9.17;7.07;;;8.80;99.90;;;;;;5095364;27;20201;-42
2022/09/30 02:16:47;;;;;;;8.03;7.33;;;8.90;99.90;;;;;;5122443;27;20219;-42
2022/09/30 02:19:19;;;;;;;7.97;7.17;;;8.80;99.90;;;;;;5118742;27;20258;-46
2022/09/30 02:21:52;;;;;;;8.80;7.77;;;8.80;99.90;;;;;;5116651;27;20571;-42
2022/09/30 02:24:24;;;;;;;9.93;7.60;;;8.80;99.90;;;;;;5120214;27;20193;-42
2022/09/30 02:26:55;;;;;;;8.27;7.57;;;8.70;99.90;;;;;;5124731;27;20283;-42
2022/09/30 02:29:26;;;;;;;8.37;7.63;;;8.70;99.90;;;;;;5106041;27;21091;-43
2022/09/30 02:31:56;;;;;;;9.43;8.50;;;8.70;99.90;;;;;;5104027;28;20185;-42
2022/09/30 02:34:27;;;;;;;10.07;8.30;;;8.70;99.90;;;;;;5099023;28;20182;-43
2022/09/30 02:37:01;;;;;;;8.23;7.47;;;8.80;99.90;;;;;;5104371;28;20248;-41
2022/09/30 02:39:34;;;;;;;11.07;7.27;;;8.80;99.90;;;;;;5100499;28;20277;-45
2022/09/30 02:42:07;;;;;;;8.23;7.37;;;8.80;99.90;;;;;;5103792;28;20220;-43
2022/09/30 02:44:34;;;;;;;7.57;6.97;;;8.90;99.90;;;;;;5100988;28;20181;-44
2022/09/30 02:47:12;;;;;;;9.43;8.43;;;8.90;99.90;;;;;;5106980;27;20208;-43
2022/09/30 02:49:46;;;;;;;9.57;7.60;;;9.00;99.90;;;;;;5119541;27;20188;-46
2022/09/30 02:52:22;;;;;;;8.93;8.03;;;9.00;99.90;;;;;;5113336;27;20184;-43
2022/09/30 02:54:58;;;;;;;8.80;8.00;;;8.90;99.90;;;;;;5123608;27;20192;-43
2022/09/30 02:57:35;;;;;;;9.00;8.10;;;8.90;99.90;;;;;;5119988;27;20296;-44
2022/09/30 03:00:02;;;;;;;8.73;7.93;;;8.90;99.90;;;;;;5122206;27;20568;-43
2022/09/30 03:02:29;;;;;;;10.23;8.80;;;8.80;99.90;;;;;;5090522;27;20201;-44
2022/09/30 03:04:57;;;;;;;8.93;8.03;;;8.80;99.90;;;;;;5102652;28;20676;-44
2022/09/30 03:07:24;;;;;;;9.00;8.00;;;8.80;99.90;;;;;;5099832;28;20266;-42
2022/09/30 03:09:56;;;;;;;8.37;7.53;;;8.80;99.90;;;;;;5104015;28;20200;-43
2022/09/30 03:12:34;;;;;;;11.83;8.67;;;8.80;99.90;;;;;;5099337;28;20965;-43
2022/09/30 03:15:18;;;;;;;10.13;9.10;;;8.80;99.90;;;;;;5102176;28;20189;-44
2022/09/30 03:18:01;;;;;;;11.83;9.93;;;8.80;99.90;;;;;;5103253;28;20228;-42
2022/09/30 03:20:44;;;;;;;13.77;10.13;;;8.80;99.90;;;;;;5107684;28;20185;-45
2022/09/30 03:23:24;;;;;;;12.83;9.33;;;8.90;99.90;;;;;;5118466;28;20207;-43
2022/09/30 03:25:58;;;;;;;12.53;10.87;;;8.90;99.90;;;;;;5100844;28;20196;-43
2022/09/30 03:28:29;;;;;;;13.40;10.30;;;9.00;99.90;;;;;;5098757;28;20459;-44
2022/09/30 03:31:04;;;;;;;11.23;10.13;;;9.00;99.90;;;;;;5103637;28;20194;-42
2022/09/30 03:33:44;;;;;;;11.43;10.20;;;9.00;99.90;;;;;;5111063;28;20981;-44
2022/09/30 03:36:21;;;;;;;14.60;10.57;;;9.00;99.90;;;;;;5121309;27;20193;-46
2022/09/30 03:38:52;;;;;;;12.63;11.03;;;9.10;99.90;;;;;;5124113;27;20192;-45
2022/09/30 03:41:27;;;;;;;13.10;9.77;;;9.10;99.90;;;;;;5119965;27;20203;-48
2022/09/30 03:44:01;;;;;;;13.50;10.47;;;9.10;99.90;;;;;;5125881;27;20188;-45
2022/09/30 03:46:34;;;;;;;12.43;10.80;;;9.10;99.90;;;;;;5109013;27;20221;-49
2022/09/30 03:49:04;;;;;;;11.33;10.07;;;9.10;99.90;;;;;;5106821;28;20221;-47
2022/09/30 03:51:32;;;;;;;11.17;9.87;;;9.10;99.90;;;;;;5105196;27;20193;-44
2022/09/30 03:53:59;;;;;;;11.40;10.00;;;9.10;99.90;;;;;;5106597;28;20200;-44
2022/09/30 03:56:28;;;;;;;11.43;10.23;;;9.10;99.90;;;;;;5103290;28;20201;-46
2022/09/30 03:58:55;;;;;;;12.17;9.83;;;9.10;99.90;;;;;;5107030;28;20268;-44
2022/09/30 04:01:23;;;;;;;11.57;9.73;;;9.00;99.90;;;;;;5085769;27;20244;-45
2022/09/30 04:03:51;;;;;;;10.97;9.80;;;9.00;99.90;;;;;;5105843;28;20197;-45
2022/09/30 04:06:19;;;;;;;10.57;9.47;;;9.00;99.90;;;;;;5115629;27;20197;-45
2022/09/30 04:08:47;;;;;;;10.40;9.03;;;9.10;99.90;;;;;;5086863;28;20194;-46
2022/09/30 04:11:14;;;;;;;10.93;9.33;;;9.00;99.90;;;;;;5084095;28;20553;-45
2022/09/30 04:13:40;;;;;;;12.10;8.80;;;9.00;99.90;;;;;;5093947;28;20215;-45
2022/09/30 04:16:07;;;;;;;10.33;9.20;;;9.00;99.90;;;;;;5093286;28;20189;-44
2022/09/30 04:18:37;;;;;;;10.57;9.47;;;9.00;99.90;;;;;;5088515;27;20689;-44
2022/09/30 04:21:05;;;;;;;10.37;9.30;;;9.00;99.90;;;;;;5102999;27;20222;-44
2022/09/30 04:23:34;;;;;;;10.10;9.10;;;9.00;99.90;;;;;;5093314;27;20228;-46
2022/09/30 04:26:03;;;;;;;12.33;8.97;;;9.00;99.90;;;;;;5100339;27;20208;-46
2022/09/30 04:28:29;;;;;;;13.83;9.77;;;9.00;99.90;;;;;;5084324;28;20190;-45
2022/09/30 04:30:59;;;;;;;11.47;10.27;;;9.00;99.90;;;;;;5098630;28;20201;-48
2022/09/30 04:33:25;;;;;;;12.80;10.43;;;9.00;99.90;;;;;;5092097;27;20293;-44
2022/09/30 04:35:53;;;;;;;12.00;10.50;;;9.00;99.90;;;;;;5093881;27;20206;-45
2022/09/30 04:38:20;;;;;;;12.77;10.90;;;9.10;99.90;;;;;;5093561;27;20585;-48
2022/09/30 04:40:48;;;;;;;14.43;11.50;;;9.10;99.90;;;;;;5098668;27;20194;-50
2022/09/30 04:43:17;;;;;;;13.63;11.77;;;9.10;99.90;;;;;;5097930;28;20225;-47
2022/09/30 04:45:45;;;;;;;14.30;11.80;;;9.20;99.90;;;;;;5115990;27;20227;-45
2022/09/30 04:48:12;;;;;;;15.40;13.30;;;9.20;99.90;;;;;;5089257;27;20217;-44
2022/09/30 04:50:39;;;;;;;17.63;13.30;;;9.20;99.90;;;;;;5100720;27;20198;-44
2022/09/30 04:53:06;;;;;;;16.30;13.23;;;9.20;99.90;;;;;;5095097;27;20213;-45
2022/09/30 04:55:33;;;;;;;20.03;13.47;;;9.30;99.90;;;;;;5105175;28;20204;-45
2022/09/30 04:57:59;;;;;;;15.40;13.17;;;9.30;99.90;;;;;;5101911;28;20240;-47
2022/09/30 05:00:28;;;;;;;15.43;13.83;;;9.30;99.90;;;;;;5106298;27;20186;-47
2022/09/30 05:02:55;;;;;;;15.93;13.23;;;9.30;99.90;;;;;;5103217;27;20200;-48
2022/09/30 05:05:22;;;;;;;14.90;12.97;;;9.40;99.90;;;;;;5101369;27;20405;-46
2022/09/30 05:07:49;;;;;;;15.83;13.63;;;9.40;99.90;;;;;;5101456;27;20221;-50
2022/09/30 05:10:16;;;;;;;17.03;14.57;;;9.40;99.90;;;;;;5114437;27;20205;-45
2022/09/30 05:12:43;;;;;;;25.57;16.40;;;9.40;99.90;;;;;;5107686;27;20676;-47
2022/09/30 05:15:11;;;;;;;26.83;15.87;;;9.40;99.90;;;;;;5101062;28;20181;-44
2022/09/30 05:17:39;;;;;;;19.67;14.60;;;9.40;99.90;;;;;;5105478;28;20217;-45
2022/09/30 05:20:09;;;;;;;15.07;13.47;;;9.40;99.90;;;;;;5093806;27;20204;-45
2022/09/30 05:22:37;;;;;;;16.73;12.43;;;9.40;99.90;;;;;;5117874;27;20200;-44
2022/09/30 05:25:04;;;;;;;13.80;12.30;;;9.40;99.90;;;;;;5097918;27;20262;-47
2022/09/30 05:27:31;;;;;;;17.37;12.77;;;9.40;99.90;;;;;;5106377;27;20280;-46
2022/09/30 05:29:58;;;;;;;15.97;13.43;;;9.40;99.90;;;;;;5119931;27;20196;-51
2022/09/30 05:32:24;;;;;;;16.97;14.27;;;9.30;99.90;;;;;;5108523;27;20193;-46
2022/09/30 05:34:54;;;;;;;19.07;15.27;;;9.40;99.90;;;;;;5105145;27;20193;-49
2022/09/30 05:37:21;;;;;;;22.40;13.83;;;9.30;99.90;;;;;;5113742;27;20213;-45
2022/09/30 05:39:48;;;;;;;19.30;13.97;;;9.30;99.90;;;;;;5091608;27;20193;-48
2022/09/30 05:42:15;;;;;;;21.30;14.40;;;9.30;99.90;;;;;;5111653;27;20948;-46
2022/09/30 05:44:42;;;;;;;29.53;15.67;;;9.30;99.90;;;;;;5117042;27;20586;-48
2022/09/30 05:47:10;;;;;;;25.73;15.07;;;9.20;99.90;;;;;;5110353;27;20201;-50
2022/09/30 05:49:37;;;;;;;20.07;13.23;;;9.20;99.90;;;;;;5106940;27;20205;-46
2022/09/30 05:52:06;;;;;;;27.67;13.80;;;9.20;99.90;;;;;;5091655;27;20797;-48
2022/09/30 05:54:33;;;;;;;21.23;14.00;;;9.20;99.90;;;;;;5100044;27;20204;-49
2022/09/30 05:57:00;;;;;;;18.73;13.07;;;9.20;99.90;;;;;;5096331;27;20217;-47
2022/09/30 05:59:27;;;;;;;15.60;12.83;;;9.20;99.90;;;;;;5109482;27;20562;-46
2022/09/30 06:01:54;;;;;;;20.87;13.10;;;9.20;99.90;;;;;;5101615;27;20692;-47
2022/09/30 06:04:22;;;;;;;13.67;12.37;;;9.20;99.90;;;;;;5095595;28;20189;-51
2022/09/30 06:06:48;;;;;;;14.03;12.57;;;9.20;99.90;;;;;;5084629;27;20720;-50
2022/09/30 06:09:17;;;;;;;14.20;12.80;;;9.20;99.90;;;;;;5118869;27;20189;-49
2022/09/30 06:11:44;;;;;;;14.77;13.27;;;9.10;99.90;;;;;;5103399;27;20216;-53
2022/09/30 06:14:11;;;;;;;13.97;12.43;;;9.20;99.90;;;;;;5103089;27;20239;-48
2022/09/30 06:16:37;;;;;;;14.50;12.87;;;9.20;99.90;;;;;;5099778;28;20823;-48
2022/09/30 06:19:05;;;;;;;14.90;13.30;;;9.20;99.90;;;;;;5103921;27;20213;-45
2022/09/30 06:21:31;;;;;;;14.23;12.83;;;9.20;99.90;;;;;;5078686;27;20612;-50
2022/09/30 06:23:58;;;;;;;14.47;12.90;;;9.20;99.90;;;;;;5106600;27;20201;-50
2022/09/30 06:26:26;;;;;;;15.27;13.67;;;9.20;99.90;;;;;;5099743;27;20577;-46
2022/09/30 06:28:53;;;;;;;23.50;14.13;;;9.30;99.90;;;;;;5100415;27;20197;-51
2022/09/30 06:31:20;;;;;;;16.20;14.03;;;9.30;99.90;;;;;;5103584;28;20189;-49
2022/09/30 06:33:47;;;;;;;18.73;13.63;;;9.40;99.90;;;;;;5100960;28;20181;-48
2022/09/30 06:36:15;;;;;;;16.43;14.70;;;9.40;99.90;;;;;;5088055;27;20590;-45
2022/09/30 06:38:42;;;;;;;17.80;15.97;;;9.40;99.90;;;;;;5099336;28;20876;-46
2022/09/30 06:41:09;;;;;;;16.93;15.13;;;9.50;99.90;;;;;;5102267;28;20268;-47
2022/09/30 06:43:39;;;;;;;17.10;15.33;;;9.50;99.90;;;;;;5096925;27;20193;-48
2022/09/30 06:46:06;;;;;;;15.87;14.10;;;9.60;99.90;;;;;;5106387;27;20641;-46
2022/09/30 06:48:33;;;;;;;17.40;14.77;;;9.60;99.90;;;;;;5099865;28;20272;-48
2022/09/30 06:51:00;;;;;;;17.87;15.73;;;9.70;99.90;;;;;;5099503;27;20600;-48
2022/09/30 06:53:28;;;;;;;20.03;16.47;;;9.80;99.90;;;;;;5082321;27;20209;-48
2022/09/30 06:55:56;;;;;;;20.50;16.67;;;9.80;99.90;;;;;;5103790;27;20238;-46
2022/09/30 06:58:23;;;;;;;20.40;15.77;;;9.90;99.90;;;;;;5092486;28;20229;-47
2022/09/30 07:00:58;;;;;;;18.30;15.37;;;9.90;99.90;;;;;;5101633;28;20189;-49
2022/09/30 07:03:28;;;;;;;20.63;14.53;;;10.00;99.90;;;;;;5101142;28;20201;-44
2022/09/30 07:05:59;;;;;;;21.20;15.03;;;10.10;99.90;;;;;;5098285;28;20224;-47
2022/09/30 07:08:28;;;;;;;16.27;14.13;;;10.10;99.90;;;;;;5088833;28;20288;-46
2022/09/30 07:10:55;;;;;;;23.50;16.53;;;10.20;99.90;;;;;;5101281;28;20208;-47
2022/09/30 07:13:22;;;;;;;19.40;15.20;;;10.20;99.90;;;;;;5095225;28;20212;-46
2022/09/30 07:15:49;;;;;;;17.67;14.20;;;10.30;99.90;;;;;;5101487;28;20193;-50
2022/09/30 07:18:19;;;;;;;15.23;13.73;;;10.40;99.90;;;;;;5102077;28;20212;-47
2022/09/30 07:20:48;;;;;;;15.30;13.67;;;10.40;99.90;;;;;;5105001;27;20216;-48
2022/09/30 07:23:15;;;;;;;15.00;12.43;;;10.50;99.90;;;;;;5090581;27;20209;-49
2022/09/30 07:25:49;;;;;;;15.13;13.17;;;10.50;99.90;;;;;;5105451;28;20208;-47
2022/09/30 07:28:16;;;;;;;15.50;12.00;;;10.60;99.90;;;;;;5100583;27;20265;-47
2022/09/30 07:30:43;;;;;;;12.67;11.30;;;10.70;99.90;;;;;;5105404;27;20193;-46
2022/09/30 07:33:15;;;;;;;12.60;11.40;;;10.70;99.90;;;;;;5117565;27;20181;-45
2022/09/30 07:35:50;;;;;;;16.17;12.53;;;10.70;99.90;;;;;;5106427;28;20201;-45
2022/09/30 07:38:18;;;;;;;14.87;11.50;;;10.80;99.90;;;;;;5093457;27;20220;-46
2022/09/30 07:40:53;;;;;;;12.17;10.97;;;10.90;99.90;;;;;;5105858;28;20201;-46
2022/09/30 07:43:20;;;;;;;11.50;10.40;;;10.90;99.90;;;;;;5104323;27;20282;-45
2022/09/30 07:45:48;;;;;;;12.97;11.47;;;11.00;99.90;;;;;;5098079;28;20209;-45
2022/09/30 07:50:57;;;;;;;11.60;10.40;;;11.20;99.90;;;;;;5108149;27;20201;-45
2022/09/30 07:53:23;;;;;;;10.70;9.70;;;11.20;99.90;;;;;;5096917;27;20214;-45
2022/09/30 07:55:50;;;;;;;10.70;9.60;;;11.20;99.90;;;;;;5102940;27;20198;-48
2022/09/30 07:58:17;;;;;;;10.10;9.03;;;11.30;99.90;;;;;;5120137;27;20929;-48
2022/09/30 08:00:47;;;;;;;10.73;9.60;;;11.40;99.90;;;;;;5113406;27;20193;-50
2022/09/30 08:03:16;;;;;;;11.87;9.67;;;11.50;99.90;;;;;;5103626;27;20200;-48
2022/09/30 08:05:44;;;;;;;10.57;9.40;;;11.60;99.90;;;;;;5116713;27;20193;-45
2022/09/30 08:08:13;;;;;;;11.57;8.70;;;11.60;99.90;;;;;;5091207;27;20217;-44
2022/09/30 08:10:39;;;;;;;10.30;9.30;;;11.70;99.90;;;;;;5109364;27;20197;-46
2022/09/30 08:13:07;;;;;;;9.67;8.77;;;11.80;99.90;;;;;;5113462;27;20192;-45
2022/09/30 08:15:33;;;;;;;9.13;8.23;;;11.90;99.90;;;;;;5113161;27;20193;-46
2022/09/30 08:18:00;;;;;;;9.67;8.67;;;11.90;99.90;;;;;;5104616;27;20410;-48
2022/09/30 08:20:27;;;;;;;8.87;7.97;;;12.00;99.90;;;;;;5115090;27;20193;-47
2022/09/30 08:22:55;;;;;;;8.97;8.00;;;12.00;99.90;;;;;;5111177;27;20262;-46
2022/09/30 08:25:25;;;;;;;7.10;6.30;;;12.10;99.90;;;;;;5092856;27;20289;-45
2022/09/30 08:27:51;;;;;;;7.60;6.80;;;12.20;99.90;;;;;;5104144;28;20910;-47
2022/09/30 08:30:18;;;;;;;6.50;5.77;;;12.20;99.90;;;;;;5117648;27;20281;-45
2022/09/30 08:32:45;;;;;;;8.43;7.53;;;12.30;99.90;;;;;;5126684;27;20184;-46
2022/09/30 08:35:11;;;;;;;7.83;6.20;;;12.40;99.90;;;;;;5108513;27;21120;-48
2022/09/30 08:37:39;;;;;;;7.00;6.20;;;;;;;;;;5127073;27;20228;-47
2022/09/30 08:40:10;;;;;;;6.87;6.17;;;12.50;99.90;;;;;;5107143;27;21558;-48
2022/09/30 08:42:57;;;;;;;8.43;6.40;;;12.50;99.90;;;;;;5103042;27;20200;-47
2022/09/30 08:45:33;;;;;;;5.97;5.37;;;12.50;99.90;;;;;;5109565;27;20657;-46
2022/09/30 08:48:12;;;;;;;6.70;5.60;;;12.60;99.90;;;;;;5102907;27;20224;-46
2022/09/30 08:50:51;;;;;;;6.20;5.60;;;12.70;99.90;;;;;;5111339;27;20649;-49
2022/09/30 08:53:26;;;;;;;6.87;5.53;;;12.80;99.90;;;;;;5119074;27;20209;-45
2022/09/30 08:55:56;;;;;;;5.80;4.37;;;12.90;99.90;;;;;;5109250;27;20208;-47
2022/09/30 08:58:28;;;;;;;6.87;4.83;;;13.00;99.90;;;;;;5104425;27;20691;-48
2022/09/30 09:00:58;;;;;;;5.70;5.00;;;13.00;99.90;;;;;;5104512;27;20601;-52
2022/09/30 09:03:29;;;;;;;5.40;4.90;;;13.10;99.90;;;;;;5111548;27;20205;-44
2022/09/30 09:06:06;;;;;;;7.30;5.03;;;13.10;99.90;;;;;;5109559;27;20201;-50
2022/09/30 09:08:48;;;;;;;5.17;4.67;;;13.20;99.90;;;;;;5110637;27;20189;-47
2022/09/30 09:11:23;;;;;;;6.93;5.17;;;13.20;99.90;;;;;;5101024;27;20213;-49
2022/09/30 09:14:01;;;;;;;4.73;4.37;;;13.30;99.90;;;;;;5097324;27;20242;-48
2022/09/30 09:16:34;;;;;;;6.67;4.83;;;13.30;99.90;;;;;;5108045;27;20220;-47
2022/09/30 09:19:07;;;;;;;4.30;3.90;;;13.30;99.90;;;;;;5113578;27;20274;-49
2022/09/30 09:21:50;;;;;;;4.90;4.40;;;13.40;99.90;;;;;;5103072;27;20233;-47
2022/09/30 09:24:20;;;;;;;5.73;4.10;;;13.40;99.90;;;;;;5113650;27;20989;-45
2022/09/30 09:26:48;;;;;;;4.03;3.70;;;13.50;99.90;;;;;;5102857;27;20708;-46
2022/09/30 09:29:37;;;;;;;4.37;3.90;;;13.60;99.90;;;;;;5095497;27;20197;-45
2022/09/30 09:32:12;;;;;;;5.47;4.20;;;13.60;99.90;;;;;;5105455;27;20193;-47
2022/09/30 09:34:40;;;;;;;4.63;4.20;;;13.60;99.90;;;;;;5093506;28;20259;-50
2022/09/30 09:37:17;;;;;;;4.30;3.70;;;13.70;99.90;;;;;;5096446;27;20828;-45
2022/09/30 09:39:58;;;;;;;3.87;3.17;;;13.70;99.90;;;;;;5104332;27;20205;-49
2022/09/30 09:42:39;;;;;;;4.03;3.30;;;13.70;99.90;;;;;;5114315;27;20193;-47
2022/09/30 09:45:15;;;;;;;3.60;3.23;;;13.70;99.90;;;;;;5090813;27;20201;-47
2022/09/30 09:47:46;;;;;;;4.93;4.40;;;13.70;99.90;;;;;;5108275;27;20632;-49
2022/09/30 09:50:18;;;;;;;6.50;3.40;;;13.70;99.90;;;;;;5102232;27;20193;-45
2022/09/30 09:53:10;;;;;;;5.90;3.80;;;13.70;99.90;;;;;;5111445;27;20284;-47
2022/09/30 09:55:38;;;;;;;4.00;3.50;;;13.80;99.90;;;;;;5097031;27;20282;-47
2022/09/30 09:58:06;;;;;;;3.83;3.53;;;13.80;99.90;;;;;;5098053;27;20310;-45
2022/09/30 10:03:22;;;;;;;6.50;3.73;;;13.90;99.90;;;;;;5108528;27;20666;-48
2022/09/30 10:06:00;;;;;;;3.83;3.53;;;13.90;99.90;;;;;;5109791;27;21611;-47
2022/09/30 10:08:30;;;;;;;4.07;3.23;;;13.90;99.90;;;;;;5104286;27;20231;-50
2022/09/30 10:10:59;;;;;;;3.87;3.30;;;14.00;99.90;;;;;;5107345;27;20196;-45
2022/09/30 10:13:29;;;;;;;5.80;3.43;;;14.00;99.90;;;;;;5101278;27;20208;-48
2022/09/30 10:15:58;;;;;;;4.50;2.80;;;14.10;99.90;;;;;;5101192;27;20601;-46
2022/09/30 10:18:27;;;;;;;3.97;3.10;;;14.10;99.90;;;;;;5104368;27;20225;-45
2022/09/30 10:20:57;;;;;;;5.17;2.83;;;14.20;99.90;;;;;;5107021;27;20241;-44
2022/09/30 10:23:29;;;;;;;4.17;2.90;;;14.20;99.90;;;;;;5098871;27;20208;-45
2022/09/30 10:25:58;;;;;;;3.87;2.70;;;14.20;99.90;;;;;;5114109;27;20200;-45
2022/09/30 10:28:28;;;;;;;3.70;2.93;;;14.20;99.90;;;;;;5103238;28;20197;-44
2022/09/30 10:31:02;;;;;;;5.17;4.00;;;14.20;99.90;;;;;;5089964;27;20199;-44
2022/09/30 10:33:43;;;;;;;4.13;2.50;;;14.30;99.90;;;;;;5111780;27;20197;-47
2022/09/30 10:36:17;;;;;;;2.70;2.50;;;14.30;99.90;;;;;;5104166;27;20584;-44
2022/09/30 10:38:53;;;;;;;4.43;2.50;;;14.30;99.90;;;;;;5095043;27;20205;-47
2022/09/30 10:41:23;;;;;;;3.73;3.33;;;14.40;99.90;;;;;;5103362;28;20230;-44
2022/09/30 10:43:53;;;;;;;4.03;3.60;;;14.40;99.90;;;;;;5102353;27;20184;-44
2022/09/30 10:46:27;;;;;;;4.23;3.60;;;14.40;99.90;;;;;;5094179;27;20579;-44
2022/09/30 10:48:55;;;;;;;4.43;3.20;;;14.60;99.90;;;;;;5103871;27;20189;-44
2022/09/30 10:51:26;;;;;;;3.80;3.50;;;14.60;99.90;;;;;;5111008;27;20197;-45
2022/09/30 10:53:53;;;;;;;3.33;3.13;;;14.70;99.90;;;;;;5102589;27;20252;-45
2022/09/30 10:56:37;;;;;;;3.00;2.80;;;14.80;99.90;;;;;;5105932;27;20661;-45
2022/09/30 10:59:15;;;;;;;5.13;3.37;;;14.80;99.90;;;;;;5099156;27;20757;-45
2022/09/30 11:01:47;;;;;;;2.67;2.47;;;14.80;99.90;;;;;;5087971;28;20208;-46
2022/09/30 11:04:22;;;;;;;2.90;2.60;;;14.90;99.90;;;;;;5100352;27;20216;-45
2022/09/30 11:06:51;;;;;;;3.27;2.37;;;14.90;99.90;;;;;;5106078;27;20211;-45
2022/09/30 11:09:26;;;;;;;4.63;2.87;;;14.90;99.90;;;;;;5099095;28;20208;-46
2022/09/30 11:11:57;;;;;;;3.40;2.90;;;14.90;99.90;;;;;;5102213;27;20189;-44
2022/09/30 11:14:31;;;;;;;3.50;3.20;;;14.90;99.90;;;;;;5111313;27;20693;-44
2022/09/30 11:17:10;;;;;;;3.83;3.43;;;15.00;99.90;;;;;;5090808;28;20941;-47
2022/09/30 11:19:45;;;;;;;3.30;2.97;;;15.10;99.90;;;;;;5093113;28;20201;-49
2022/09/30 11:22:27;;;;;;;3.07;2.50;;;15.10;99.90;;;;;;5111321;28;20681;-49
2022/09/30 11:24:56;;;;;;;2.80;2.47;;;15.10;99.90;;;;;;5099884;28;20273;-44
2022/09/30 11:27:37;;;;;;;2.80;2.60;;;15.10;99.90;;;;;;5103321;28;20300;-44
2022/09/30 11:30:10;;;;;;;3.30;3.00;;;15.20;99.90;;;;;;5101355;28;20192;-45
2022/09/30 11:32:50;;;;;;;2.73;2.10;;;15.20;99.90;;;;;;5078545;28;20596;-49
2022/09/30 11:35:43;;;;;;;2.40;2.20;;;15.30;99.90;;;;;;5108576;28;20199;-45
2022/09/30 11:38:26;;;;;;;4.37;1.90;;;15.40;99.90;;;;;;5108012;28;20594;-44
2022/09/30 11:41:01;;;;;;;3.13;2.40;;;15.60;99.90;;;;;;5095814;28;20354;-44
2022/09/30 11:43:44;;;;;;;4.00;2.33;;;15.60;99.90;;;;;;5102651;28;20209;-46
2022/09/30 11:46:25;;;;;;;2.10;1.87;;;15.70;99.90;;;;;;5112969;28;20189;-44
2022/09/30 11:49:13;;;;;;;3.27;2.03;;;15.70;99.90;;;;;;5089128;28;20204;-47
2022/09/30 11:51:48;;;;;;;2.70;1.70;;;15.70;99.90;;;;;;5102258;28;20224;-45
2022/09/30 11:54:33;;;;;;;2.43;2.23;;;15.70;99.90;;;;;;5109483;27;20573;-46
2022/09/30 11:57:07;;;;;;;2.43;1.80;;;15.70;99.90;;;;;;5103688;27;20252;-44
2022/09/30 11:59:41;;;;;;;1.87;1.33;;;15.70;99.90;;;;;;5113272;27;20562;-48
2022/09/30 12:02:26;;;;;;;1.60;1.50;;;15.70;99.90;;;;;;5115248;27;20805;-44
2022/09/30 12:04:59;;;;;;;1.93;1.70;;;15.70;99.90;;;;;;5082636;27;21034;-48
2022/09/30 12:07:36;;;;;;;2.00;1.90;;;15.80;99.90;;;;;;5112899;27;20220;-44
2022/09/30 12:10:13;;;;;;;2.07;1.90;;;15.90;99.90;;;;;;5125324;27;20193;-44
2022/09/30 12:12:40;;;;;;;2.43;1.73;;;16.00;99.90;;;;;;5097311;27;20204;-46
2022/09/30 12:15:08;;;;;;;1.60;1.50;;;16.00;99.90;;;;;;5117135;27;20216;-46
2022/09/30 12:17:38;;;;;;;2.43;1.93;;;16.00;99.90;;;;;;5105121;27;20217;-49
2022/09/30 12:20:15;;;;;;;2.33;2.23;;;16.00;99.90;;;;;;5089346;27;20213;-45
2022/09/30 12:22:45;;;;;;;3.93;2.53;;;16.00;99.90;;;;;;5096110;27;20197;-46
2022/09/30 12:25:16;;;;;;;2.87;2.20;;;16.20;99.90;;;;;;5120228;27;20189;-43
2022/09/30 12:27:48;;;;;;;2.33;1.80;;;16.20;99.90;;;;;;5089513;27;20221;-44
2022/09/30 12:30:17;;;;;;;2.07;1.87;;;16.10;99.90;;;;;;5118559;27;20189;-48
2022/09/30 12:33:24;;;;;;;2.63;2.00;;;16.00;99.90;;;;;;5102369;27;20262;-46
2022/09/30 12:36:14;;;;;;;2.03;1.83;;;16.00;99.90;;;;;;5091292;27;20962;-46
2022/09/30 12:39:10;;;;;;;2.17;1.87;;;16.10;99.90;;;;;;5104584;27;20197;-44
2022/09/30 12:41:51;;;;;;;1.97;1.80;;;16.20;99.90;;;;;;5101250;27;20538;-46
2022/09/30 12:44:56;;;;;;;1.97;1.73;;;16.20;99.90;;;;;;5092493;27;20577;-44
2022/09/30 12:47:36;;;;;;;2.13;1.93;;;16.10;99.90;;;;;;5106482;27;20213;-45
2022/09/30 12:50:07;;;;;;;2.67;2.37;;;16.30;99.90;;;;;;5109777;27;20196;-45
2022/09/30 12:52:37;;;;;;;3.53;2.37;;;16.40;99.90;;;;;;5090686;27;20215;-46
2022/09/30 12:55:08;;;;;;;2.67;2.03;;;16.40;99.90;;;;;;5101956;27;20198;-43
2022/09/30 12:57:40;;;;;;;2.37;2.17;;;16.40;99.90;;;;;;5098974;27;20244;-45
2022/09/30 13:00:15;;;;;;;3.17;2.73;;;16.60;99.90;;;;;;5104894;27;20217;-44
2022/09/30 13:02:44;;;;;;;3.57;2.80;;;16.60;99.90;;;;;;5114597;27;20299;-44
2022/09/30 13:05:56;;;;;;;2.57;2.37;;;16.70;99.90;;;;;;5125236;27;20197;-43
2022/09/30 13:08:46;;;;;;;3.30;3.00;;;16.70;99.90;;;;;;5094611;27;20232;-43
2022/09/30 13:11:35;;;;;;;2.93;2.73;;;16.80;99.90;;;;;;5114591;27;20207;-44
2022/09/30 13:14:17;;;;;;;3.20;2.90;;;16.80;99.90;;;;;;5100002;27;20210;-46
2022/09/30 13:17:04;;;;;;;3.97;2.93;;;16.90;99.90;;;;;;5115005;27;20222;-47